createdAt,value
2022-11-29T00:00:59.773Z,4.32
2022-11-29T00:03:28.253Z,4.36
2022-11-29T00:05:56.533Z,4.32
2022-11-29T00:08:24.804Z,4.33
2022-11-29T00:10:53.700Z,4.33
2022-11-29T00:13:21.239Z,4.33
2022-11-29T00:15:48.809Z,4.35
2022-11-29T00:18:16.374Z,4.37
2022-11-29T00:20:43.931Z,4.36
2022-11-29T00:23:11.623Z,4.39
2022-11-29T00:25:39.557Z,4.44
2022-11-29T00:28:08.459Z,4.43
2022-11-29T00:30:36.071Z,4.43
2022-11-29T00:33:04.529Z,4.42
2022-11-29T00:35:32.720Z,4.41
2022-11-29T00:38:00.266Z,4.38
2022-11-29T00:40:27.870Z,4.39
2022-11-29T00:42:55.426Z,4.42
2022-11-29T00:45:24.372Z,4.37
2022-11-29T00:47:51.957Z,4.38
2022-11-29T00:50:19.708Z,4.37
2022-11-29T00:52:47.281Z,4.36
2022-11-29T00:55:15.200Z,4.39
2022-11-29T00:57:42.796Z,4.37
2022-11-29T01:00:11.426Z,4.37
2022-11-29T01:02:40.425Z,4.34
2022-11-29T01:05:08.556Z,4.27
2022-11-29T01:07:36.199Z,4.27
2022-11-29T01:10:04.559Z,4.24
2022-11-29T01:12:32.113Z,4.22
2022-11-29T01:14:59.881Z,4.27
2022-11-29T01:17:27.431Z,4.31
2022-11-29T01:19:56.493Z,4.30
2022-11-29T01:22:24.197Z,4.31
2022-11-29T01:24:51.752Z,4.31
2022-11-29T01:27:19.333Z,4.34
2022-11-29T01:29:46.902Z,4.36
2022-11-29T01:32:14.477Z,4.37
2022-11-29T01:34:42.527Z,4.35
2022-11-29T01:37:11.765Z,4.37
2022-11-29T01:39:40.017Z,4.36
2022-11-29T01:42:07.632Z,4.36
2022-11-29T01:45:01.492Z,4.32
2022-11-29T01:47:29.718Z,4.31
2022-11-29T01:49:57.541Z,4.31
2022-11-29T01:52:29.373Z,4.33
2022-11-29T01:55:01.320Z,4.32
2022-11-29T01:57:29.859Z,4.33
2022-11-29T02:00:02.480Z,4.27
2022-11-29T02:02:33.677Z,4.30
2022-11-29T02:05:03.478Z,4.34
2022-11-29T02:07:33.155Z,4.33
2022-11-29T02:10:01.021Z,4.36
2022-11-29T02:12:40.937Z,4.35
2022-11-29T02:15:23.890Z,4.32
2022-11-29T02:18:05.171Z,4.36
2022-11-29T02:21:04.328Z,4.34
2022-11-29T02:24:09.368Z,4.37
2022-11-29T02:27:07.833Z,4.34
2022-11-29T02:30:02.512Z,4.37
2022-11-29T02:33:07.711Z,4.36
2022-11-29T02:35:51.764Z,4.35
2022-11-29T02:38:34.036Z,4.36
2022-11-29T02:41:16.980Z,4.37
2022-11-29T02:44:08.473Z,4.41
2022-11-29T02:47:01.185Z,4.40
2022-11-29T02:49:45.150Z,4.38
2022-11-29T02:52:20.251Z,4.38
2022-11-29T02:54:53.269Z,4.40
2022-11-29T02:57:26.941Z,4.40
2022-11-29T03:00:02.359Z,4.43
2022-11-29T03:02:37.795Z,4.43
2022-11-29T03:05:18.247Z,4.45
2022-11-29T03:07:52.806Z,4.48
2022-11-29T03:10:31.860Z,4.47
2022-11-29T03:13:00.764Z,4.48
2022-11-29T03:15:32.409Z,4.48
2022-11-29T03:18:10.957Z,4.42
2022-11-29T03:20:56.350Z,4.44
2022-11-29T03:23:29.530Z,4.46
2022-11-29T03:26:04.747Z,4.48
2022-11-29T03:28:36.137Z,4.46
2022-11-29T03:31:11.592Z,4.49
2022-11-29T03:33:46.411Z,4.46
2022-11-29T03:36:22.445Z,4.46
2022-11-29T03:38:56.032Z,4.47
2022-11-29T03:41:28.571Z,4.47
2022-11-29T03:44:01.400Z,4.46
2022-11-29T03:46:35.965Z,4.44
2022-11-29T03:49:08.468Z,4.45
2022-11-29T03:51:49.708Z,4.44
2022-11-29T03:54:24.311Z,4.40
2022-11-29T03:56:52.456Z,4.42
2022-11-29T03:59:30.947Z,4.44
2022-11-29T04:02:32.034Z,4.38
2022-11-29T04:05:29.844Z,4.38
2022-11-29T04:08:11.987Z,4.36
2022-11-29T04:10:58.989Z,4.36
2022-11-29T04:13:46.515Z,4.36
2022-11-29T04:16:39.864Z,4.38
2022-11-29T04:19:35.063Z,4.39
2022-11-29T04:22:29.472Z,4.36
2022-11-29T04:25:14.522Z,4.36
2022-11-29T04:28:06.369Z,4.34
2022-11-29T04:30:47.243Z,4.31
2022-11-29T04:33:42.903Z,4.31
2022-11-29T04:36:35.269Z,4.32
2022-11-29T04:39:17.109Z,4.31
2022-11-29T04:42:09.968Z,4.32
2022-11-29T04:44:50.828Z,4.33
2022-11-29T04:47:40.425Z,4.36
2022-11-29T04:50:19.268Z,4.32
2022-11-29T04:53:07.067Z,4.36
2022-11-29T04:55:45.397Z,4.40
2022-11-29T04:58:21.934Z,4.40
2022-11-29T05:01:00.621Z,4.42
2022-11-29T05:03:38.832Z,4.43
2022-11-29T05:06:18.541Z,4.44
2022-11-29T05:08:56.545Z,4.43
2022-11-29T05:11:36.200Z,4.40
2022-11-29T05:14:16.204Z,4.41
2022-11-29T05:16:56.331Z,4.44
2022-11-29T05:19:44.043Z,4.41
2022-11-29T05:22:23.545Z,4.42
2022-11-29T05:25:02.910Z,4.43
2022-11-29T05:27:42.804Z,4.44
2022-11-29T05:30:14.216Z,4.39
2022-11-29T05:32:55.308Z,4.39
2022-11-29T05:35:53.156Z,4.42
2022-11-29T05:38:54.403Z,4.43
2022-11-29T05:41:38.475Z,4.44
2022-11-29T05:44:12.311Z,4.41
2022-11-29T05:46:49.861Z,4.41
2022-11-29T05:49:30.167Z,4.38
2022-11-29T05:52:14.650Z,4.39
2022-11-29T05:54:47.779Z,4.40
2022-11-29T05:57:24.115Z,4.41
2022-11-29T05:59:52.745Z,4.42
2022-11-29T06:02:35.910Z,4.43
2022-11-29T06:05:14.003Z,4.46
2022-11-29T06:07:48.234Z,4.41
2022-11-29T06:10:18.956Z,4.41
2022-11-29T06:12:55.360Z,4.41
2022-11-29T06:15:49.917Z,4.43
2022-11-29T06:18:36.741Z,4.43
2022-11-29T06:21:18.525Z,4.41
2022-11-29T06:24:07.953Z,4.39
2022-11-29T06:26:54.638Z,4.38
2022-11-29T06:29:30.625Z,4.33
2022-11-29T06:32:08.279Z,4.35
2022-11-29T06:34:46.561Z,4.32
2022-11-29T06:37:22.232Z,4.35
2022-11-29T06:39:50.307Z,4.33
2022-11-29T06:42:18.144Z,4.32
2022-11-29T06:44:46.416Z,4.28
2022-11-29T06:47:21.999Z,4.33
2022-11-29T06:49:54.367Z,4.28
2022-11-29T06:52:39.989Z,4.24
2022-11-29T06:55:19.108Z,4.27
2022-11-29T06:58:02.893Z,4.27
2022-11-29T07:00:42.573Z,4.27
2022-11-29T07:03:29.144Z,4.33
2022-11-29T07:05:58.304Z,4.32
2022-11-29T07:08:27.887Z,4.33
2022-11-29T07:10:56.106Z,4.35
2022-11-29T07:13:24.228Z,4.33
2022-11-29T07:16:04.293Z,4.37
2022-11-29T07:18:40.496Z,4.36
2022-11-29T07:21:17.535Z,4.31
2022-11-29T07:23:52.612Z,4.32
2022-11-29T07:26:27.787Z,4.37
2022-11-29T07:29:08.327Z,4.40
2022-11-29T07:31:46.507Z,4.41
2022-11-29T07:34:22.211Z,4.44
2022-11-29T07:36:58.977Z,4.46
2022-11-29T07:39:38.008Z,4.44
2022-11-29T07:42:14.714Z,4.46
2022-11-29T07:44:51.084Z,4.45
2022-11-29T07:47:18.652Z,4.50
2022-11-29T07:49:46.219Z,4.51
2022-11-29T07:52:15.539Z,4.47
2022-11-29T07:54:44.724Z,4.54
2022-11-29T07:57:12.491Z,4.47
2022-11-29T07:59:40.032Z,4.52
2022-11-29T08:02:11.693Z,4.50
2022-11-29T08:04:43.399Z,4.54
2022-11-29T08:07:11.465Z,4.55
2022-11-29T08:09:39.049Z,4.59
2022-11-29T08:12:08.364Z,4.62
2022-11-29T08:14:35.942Z,4.63
2022-11-29T08:17:03.484Z,4.65
2022-11-29T08:19:31.049Z,4.66
2022-11-29T08:21:58.801Z,4.68
2022-11-29T08:24:26.792Z,4.64
2022-11-29T08:26:54.437Z,4.67
2022-11-29T08:29:23.651Z,4.68
2022-11-29T08:31:53.239Z,4.71
2022-11-29T08:34:21.079Z,4.71
2022-11-29T08:36:48.662Z,4.72
2022-11-29T08:39:16.319Z,4.77
2022-11-29T08:41:44.288Z,4.82
2022-11-29T08:44:11.875Z,4.84
2022-11-29T08:46:58.519Z,4.85
2022-11-29T08:49:26.108Z,4.81
2022-11-29T08:52:14.194Z,4.74
2022-11-29T08:54:40.804Z,4.74
2022-11-29T08:57:38.594Z,4.72
2022-11-29T08:59:55.965Z,4.75
2022-11-29T09:02:24.937Z,4.76
2022-11-29T09:04:52.529Z,4.80
2022-11-29T09:07:20.150Z,4.82
2022-11-29T09:09:47.922Z,4.81
2022-11-29T09:12:15.494Z,4.82
2022-11-29T09:14:43.250Z,4.83
2022-11-29T09:17:11.173Z,4.88
2022-11-29T09:19:40.095Z,4.96
2022-11-29T09:22:07.745Z,5.02
2022-11-29T09:24:35.303Z,5.09
2022-11-29T09:27:03.005Z,5.15
2022-11-29T09:29:30.601Z,5.18
2022-11-29T09:31:58.225Z,5.22
2022-11-29T09:34:25.960Z,5.15
2022-11-29T09:36:54.911Z,5.21
2022-11-29T09:39:22.544Z,5.23
2022-11-29T09:42:06.447Z,5.29
2022-11-29T09:44:45.060Z,5.21
2022-11-29T09:47:26.350Z,5.32
2022-11-29T09:50:02.053Z,5.35
2022-11-29T09:52:42.817Z,5.31
2022-11-29T09:55:30.957Z,5.32
2022-11-29T09:58:03.699Z,5.35
2022-11-29T10:00:33.552Z,5.37
2022-11-29T10:03:11.029Z,5.38
2022-11-29T10:05:42.908Z,5.42
2022-11-29T10:08:20.417Z,5.35
2022-11-29T10:10:49.856Z,5.32
2022-11-29T10:13:23.200Z,5.41
2022-11-29T10:15:55.051Z,5.40
2022-11-29T10:18:26.998Z,5.43
2022-11-29T10:20:58.481Z,5.55
2022-11-29T10:23:32.881Z,5.61
2022-11-29T10:26:01.122Z,5.57
2022-11-29T10:28:31.392Z,5.62
2022-11-29T10:31:04.237Z,5.56
2022-11-29T10:33:36.474Z,5.63
2022-11-29T10:36:16.235Z,5.57
2022-11-29T10:38:47.051Z,5.64
2022-11-29T10:41:19.484Z,5.62
2022-11-29T10:43:47.324Z,5.57
2022-11-29T10:46:22.414Z,5.51
2022-11-29T10:48:50.236Z,5.50
2022-11-29T10:51:18.878Z,5.55
2022-11-29T10:53:47.838Z,5.53
2022-11-29T10:56:24.017Z,5.47
2022-11-29T10:58:57.843Z,5.38
2022-11-29T11:01:28.943Z,5.42
2022-11-29T11:03:58.501Z,5.41
2022-11-29T11:06:28.522Z,5.45
2022-11-29T11:09:12.248Z,5.52
2022-11-29T11:11:40.452Z,5.55
2022-11-29T11:14:28.278Z,5.56
2022-11-29T11:16:56.643Z,5.55
2022-11-29T11:19:31.804Z,5.55
2022-11-29T11:22:01.435Z,5.56
2022-11-29T11:24:32.387Z,5.55
2022-11-29T11:27:00.835Z,5.54
2022-11-29T11:29:36.330Z,5.55
2022-11-29T11:32:05.695Z,5.57
2022-11-29T11:34:35.487Z,5.59
2022-11-29T11:37:25.794Z,5.67
2022-11-29T11:39:56.876Z,5.70
2022-11-29T11:42:38.643Z,5.71
2022-11-29T11:45:24.164Z,5.77
2022-11-29T11:47:54.784Z,5.78
2022-11-29T11:50:32.517Z,5.80
2022-11-29T11:53:03.450Z,5.83
2022-11-29T11:55:35.392Z,5.92
2022-11-29T11:58:10.351Z,5.84
2022-11-29T12:03:42.080Z,5.70
2022-11-29T12:06:27.973Z,5.75
2022-11-29T12:09:02.092Z,5.80
2022-11-29T12:11:36.469Z,5.75
2022-11-29T12:14:06.532Z,5.76
2022-11-29T12:16:40.197Z,5.83
2022-11-29T12:19:16.282Z,5.93
2022-11-29T12:21:48.456Z,5.90
2022-11-29T12:24:24.478Z,5.80
2022-11-29T12:26:58.354Z,5.77
2022-11-29T12:29:30.008Z,5.78
2022-11-29T12:32:12.906Z,5.82
2022-11-29T12:34:56.577Z,5.84
2022-11-29T12:37:33.304Z,5.93
2022-11-29T12:40:06.664Z,5.83
2022-11-29T12:42:47.664Z,5.73
2022-11-29T12:45:41.634Z,5.78
2022-11-29T12:48:23.189Z,5.77
2022-11-29T12:51:02.819Z,5.72
2022-11-29T12:53:43.341Z,5.74
2022-11-29T12:56:16.675Z,5.76
2022-11-29T12:59:01.484Z,5.73
2022-11-29T13:01:37.837Z,5.67
2022-11-29T13:04:16.920Z,5.69
2022-11-29T13:06:54.251Z,5.69
2022-11-29T13:10:02.753Z,5.68
2022-11-29T13:12:37.595Z,5.77
2022-11-29T13:15:15.460Z,5.75
2022-11-29T13:17:53.572Z,5.74
2022-11-29T13:20:34.808Z,5.73
2022-11-29T13:23:09.581Z,5.68
2022-11-29T13:25:39.743Z,5.53
2022-11-29T13:28:12.081Z,5.53
2022-11-29T13:30:41.205Z,5.51
2022-11-29T13:33:17.323Z,5.49
2022-11-29T13:35:51.938Z,5.47
2022-11-29T13:38:24.245Z,5.50
2022-11-29T13:41:00.800Z,5.45
2022-11-29T13:43:37.202Z,5.39
2022-11-29T13:46:20.619Z,5.47
2022-11-29T13:48:50.211Z,5.42
2022-11-29T13:51:30.476Z,5.42
2022-11-29T13:54:00.632Z,5.34
2022-11-29T13:56:36.669Z,5.32
2022-11-29T13:59:09.660Z,5.38
2022-11-29T14:01:53.923Z,5.38
2022-11-29T14:04:35.886Z,5.29
2022-11-29T14:07:10.040Z,5.26
2022-11-29T14:09:44.337Z,5.32
2022-11-29T14:12:27.394Z,5.31
2022-11-29T14:14:59.097Z,5.25
2022-11-29T14:17:36.443Z,5.29
2022-11-29T14:20:45.633Z,5.26
2022-11-29T14:23:18.481Z,5.24
2022-11-29T14:26:23.716Z,5.23
2022-11-29T14:28:54.321Z,5.27
2022-11-29T14:31:54.331Z,5.30
2022-11-29T14:34:38.515Z,5.33
2022-11-29T14:37:18.764Z,5.34
2022-11-29T14:39:48.981Z,5.34
2022-11-29T14:42:20.162Z,5.29
2022-11-29T14:44:52.057Z,5.29
2022-11-29T14:47:26.279Z,5.30
2022-11-29T14:49:57.528Z,5.26
2022-11-29T14:52:33.356Z,5.24
2022-11-29T14:55:05.960Z,5.21
2022-11-29T14:58:12.959Z,5.23
2022-11-29T15:00:56.167Z,5.18
2022-11-29T15:03:32.391Z,5.17
2022-11-29T15:06:10.450Z,5.19
2022-11-29T15:08:46.766Z,5.18
2022-11-29T15:11:19.228Z,5.17
2022-11-29T15:13:59.876Z,5.14
2022-11-29T15:16:53.045Z,5.19
2022-11-29T15:19:47.720Z,5.21
2022-11-29T15:22:19.454Z,5.20
2022-11-29T15:24:55.328Z,5.21
2022-11-29T15:27:23.315Z,5.21
2022-11-29T15:29:52.301Z,5.10
2022-11-29T15:32:25.841Z,5.13
2022-11-29T15:34:55.839Z,5.13
2022-11-29T15:37:39.829Z,5.07
2022-11-29T15:40:12.536Z,5.01
2022-11-29T15:42:43.579Z,5.06
2022-11-29T15:45:32.304Z,5.10
2022-11-29T15:48:16.941Z,5.06
2022-11-29T15:50:51.080Z,4.95
2022-11-29T15:53:22.581Z,4.95
2022-11-29T15:55:53.324Z,4.92
2022-11-29T15:58:21.786Z,4.94
2022-11-29T16:00:50.450Z,4.95
2022-11-29T16:03:25.137Z,4.96
2022-11-29T16:06:01.086Z,4.90
2022-11-29T16:08:35.253Z,4.89
2022-11-29T16:11:02.960Z,4.91
2022-11-29T16:13:35.232Z,4.80
2022-11-29T16:16:14.263Z,4.76
2022-11-29T16:18:43.709Z,4.79
2022-11-29T16:21:24.756Z,4.80
2022-11-29T16:23:54.494Z,4.71
2022-11-29T16:26:27.354Z,4.72
2022-11-29T16:28:57.804Z,4.77
2022-11-29T16:31:33.108Z,4.80
2022-11-29T16:34:08.815Z,4.81
2022-11-29T16:36:37.073Z,4.84
2022-11-29T16:39:08.768Z,4.88
2022-11-29T16:41:38.217Z,4.91
2022-11-29T16:44:07.672Z,4.95
2022-11-29T16:46:39.431Z,4.99
2022-11-29T16:49:36.075Z,4.96
2022-11-29T16:52:23.117Z,4.95
2022-11-29T16:54:52.217Z,4.88
2022-11-29T16:57:20.108Z,4.87
2022-11-29T16:59:47.900Z,4.85
2022-11-29T17:02:16.838Z,4.85
2022-11-29T17:04:45.630Z,4.84
2022-11-29T17:07:17.239Z,4.86
2022-11-29T17:09:44.978Z,4.85
2022-11-29T17:12:14.636Z,4.83
2022-11-29T17:14:42.215Z,4.81
2022-11-29T17:17:14.765Z,4.78
2022-11-29T17:19:42.369Z,4.75
2022-11-29T17:22:10.018Z,4.74
2022-11-29T17:24:41.192Z,4.74
2022-11-29T17:27:13.928Z,4.71
2022-11-29T17:29:41.461Z,4.67
2022-11-29T17:32:09.152Z,4.67
2022-11-29T17:34:36.746Z,4.65
2022-11-29T17:37:04.299Z,4.64
2022-11-29T17:39:31.962Z,4.62
2022-11-29T17:41:59.532Z,4.64
2022-11-29T17:44:28.519Z,4.61
2022-11-29T17:46:56.093Z,4.65
2022-11-29T17:49:23.649Z,4.59
2022-11-29T17:51:52.996Z,4.60
2022-11-29T17:54:21.789Z,4.56
2022-11-29T17:56:49.402Z,4.61
2022-11-29T17:59:17.217Z,4.65
2022-11-29T18:01:47.860Z,4.66
2022-11-29T18:04:15.672Z,4.68
2022-11-29T18:06:43.458Z,4.70
2022-11-29T18:09:12.833Z,4.72
2022-11-29T18:11:47.691Z,4.66
2022-11-29T18:14:17.616Z,4.63
2022-11-29T18:16:46.641Z,4.65
2022-11-29T18:19:16.011Z,4.67
2022-11-29T18:21:43.744Z,4.66
2022-11-29T18:24:11.734Z,4.66
2022-11-29T18:26:40.272Z,4.64
2022-11-29T18:29:08.396Z,4.67
2022-11-29T18:31:37.992Z,4.58
2022-11-29T18:34:09.680Z,4.65
2022-11-29T18:36:39.515Z,4.65
2022-11-29T18:39:09.594Z,4.62
2022-11-29T18:41:38.512Z,4.65
2022-11-29T18:44:08.096Z,4.68
2022-11-29T18:46:37.172Z,4.69
2022-11-29T18:49:07.768Z,4.69
2022-11-29T18:51:36.295Z,4.70
2022-11-29T18:54:04.726Z,4.71
2022-11-29T18:56:34.591Z,4.73
2022-11-29T18:59:06.525Z,4.75
2022-11-29T19:01:35.376Z,4.77
2022-11-29T19:04:03.279Z,4.78
2022-11-29T19:06:39.327Z,4.79
2022-11-29T19:09:09.664Z,4.79
2022-11-29T19:11:37.262Z,4.77
2022-11-29T19:14:11.791Z,4.79
2022-11-29T19:16:41.364Z,4.79
2022-11-29T19:19:09.230Z,4.77
2022-11-29T19:21:39.579Z,4.79
2022-11-29T19:24:13.506Z,4.76
2022-11-29T19:26:42.902Z,4.76
2022-11-29T19:29:10.581Z,4.81
2022-11-29T19:31:39.260Z,4.79
2022-11-29T19:34:07.290Z,4.84
2022-11-29T19:36:36.991Z,4.83
2022-11-29T19:39:06.005Z,4.88
2022-11-29T19:41:35.973Z,4.91
2022-11-29T19:44:06.254Z,4.90
2022-11-29T19:46:36.062Z,4.90
2022-11-29T19:49:05.644Z,4.89
2022-11-29T19:51:33.650Z,4.88
2022-11-29T19:54:03.222Z,4.87
2022-11-29T19:56:33.000Z,4.82
2022-11-29T19:59:00.641Z,4.82
2022-11-29T20:01:37.816Z,4.85
2022-11-29T20:04:08.257Z,4.83
2022-11-29T20:06:36.188Z,4.82
2022-11-29T20:09:04.145Z,4.85
2022-11-29T20:11:33.181Z,4.84
2022-11-29T20:14:02.481Z,4.83
2022-11-29T20:16:31.438Z,4.86
2022-11-29T20:18:59.969Z,4.89
2022-11-29T20:21:30.135Z,4.86
2022-11-29T20:23:59.851Z,4.88
2022-11-29T20:26:28.989Z,4.88
2022-11-29T20:28:57.912Z,4.90
2022-11-29T20:31:25.542Z,4.88
2022-11-29T20:33:54.663Z,4.89
2022-11-29T20:36:33.894Z,4.92
2022-11-29T20:39:09.730Z,4.91
2022-11-29T20:41:42.540Z,4.91
2022-11-29T20:44:17.126Z,4.92
2022-11-29T20:46:45.041Z,4.93
2022-11-29T20:49:15.129Z,4.96
2022-11-29T20:51:49.549Z,4.93
2022-11-29T20:54:19.456Z,4.92
2022-11-29T20:56:47.043Z,4.90
2022-11-29T20:59:16.056Z,4.85
2022-11-29T21:01:43.707Z,4.85
2022-11-29T21:04:11.289Z,4.82
2022-11-29T21:06:38.864Z,4.79
2022-11-29T21:09:07.148Z,4.80
2022-11-29T21:11:35.305Z,4.82
2022-11-29T21:14:04.439Z,4.81
2022-11-29T21:16:34.119Z,4.79
2022-11-29T21:19:03.670Z,4.78
2022-11-29T21:21:36.816Z,4.72
2022-11-29T21:24:11.770Z,4.70
2022-11-29T21:26:45.651Z,4.68
2022-11-29T21:29:17.077Z,4.66
2022-11-29T21:31:47.591Z,4.61
2022-11-29T21:34:15.277Z,4.64
2022-11-29T21:36:43.768Z,4.63
2022-11-29T21:39:16.080Z,4.67
2022-11-29T21:41:43.667Z,4.66
2022-11-29T21:44:11.220Z,4.65
2022-11-29T21:46:38.849Z,4.67
2022-11-29T21:49:07.894Z,4.66
2022-11-29T21:51:35.490Z,4.66
2022-11-29T21:54:03.060Z,4.64
2022-11-29T21:56:30.688Z,4.64
2022-11-29T21:58:58.248Z,4.65
2022-11-29T22:01:27.106Z,4.66
2022-11-29T22:03:55.492Z,4.69
2022-11-29T22:06:26.097Z,4.72
2022-11-29T22:08:53.725Z,4.74
2022-11-29T22:11:31.430Z,4.77
2022-11-29T22:14:15.598Z,4.79
2022-11-29T22:16:44.606Z,4.81
2022-11-29T22:19:14.116Z,4.83
2022-11-29T22:21:44.611Z,4.84
2022-11-29T22:24:13.228Z,4.85
2022-11-29T22:26:41.677Z,4.85
2022-11-29T22:29:09.228Z,4.86
2022-11-29T22:31:37.255Z,4.83
2022-11-29T22:34:04.871Z,4.81
2022-11-29T22:36:32.971Z,4.81
2022-11-29T22:39:01.975Z,4.77
2022-11-29T22:41:29.508Z,4.75
2022-11-29T22:43:57.103Z,4.74
2022-11-29T22:46:26.158Z,4.71
2022-11-29T22:48:55.797Z,4.71
2022-11-29T22:51:25.076Z,4.69
2022-11-29T22:53:54.424Z,4.68
2022-11-29T22:56:24.961Z,4.64
2022-11-29T22:58:52.862Z,4.64
2022-11-29T23:01:22.287Z,4.59
2022-11-29T23:03:51.757Z,4.59
2022-11-29T23:06:20.993Z,4.57
2022-11-29T23:08:49.916Z,4.56
2022-11-29T23:11:22.289Z,4.56
2022-11-29T23:13:51.893Z,4.56
2022-11-29T23:16:21.831Z,4.57
2022-11-29T23:18:50.049Z,4.58
2022-11-29T23:21:19.725Z,4.58
2022-11-29T23:23:51.510Z,4.58
2022-11-29T23:26:24.152Z,4.60
2022-11-29T23:28:53.932Z,4.62
2022-11-29T23:31:22.481Z,4.62
2022-11-29T23:33:50.619Z,4.66
2022-11-29T23:36:18.837Z,4.68
2022-11-29T23:38:46.961Z,4.69
2022-11-29T23:41:15.028Z,4.70
2022-11-29T23:43:42.828Z,4.73
2022-11-29T23:46:15.103Z,4.72
2022-11-29T23:48:42.883Z,4.72
2022-11-29T23:51:10.994Z,4.72
2022-11-29T23:53:38.654Z,4.72
2022-11-29T23:56:08.547Z,4.72
2022-11-29T23:58:36.312Z,4.72
